createdAt,value
2023-01-06T00:01:17.264Z,6.20
2023-01-06T00:03:45.602Z,6.15
2023-01-06T00:06:13.662Z,6.43
2023-01-06T00:08:41.384Z,6.53
2023-01-06T00:11:10.162Z,7.43
2023-01-06T00:13:38.197Z,10.00
2023-01-06T00:16:07.669Z,11.30
2023-01-06T00:18:37.401Z,9.68
2023-01-06T00:21:06.768Z,8.15
2023-01-06T00:23:34.933Z,7.68
2023-01-06T00:26:04.360Z,8.63
2023-01-06T00:28:34.468Z,7.38
2023-01-06T00:31:07.012Z,7.50
2023-01-06T00:33:34.915Z,7.28
2023-01-06T00:36:04.728Z,6.57
2023-01-06T00:38:36.158Z,7.55
2023-01-06T00:41:05.003Z,7.93
2023-01-06T00:43:32.938Z,7.18
2023-01-06T00:46:02.646Z,7.30
2023-01-06T00:48:30.789Z,6.97
2023-01-06T00:51:01.831Z,7.25
2023-01-06T00:53:31.060Z,7.50
2023-01-06T00:56:01.415Z,7.47
2023-01-06T00:58:31.036Z,6.60
2023-01-06T01:00:58.836Z,7.35
2023-01-06T01:03:26.632Z,7.97
2023-01-06T01:05:54.433Z,7.25
2023-01-06T01:08:22.160Z,6.70
2023-01-06T01:10:52.456Z,5.90
2023-01-06T01:13:20.374Z,5.65
2023-01-06T01:15:50.048Z,6.15
2023-01-06T01:18:19.430Z,5.70
2023-01-06T01:20:48.407Z,5.30
2023-01-06T01:23:16.201Z,5.13
2023-01-06T01:25:43.886Z,5.40
2023-01-06T01:28:12.974Z,5.05
2023-01-06T01:30:41.435Z,4.70
2023-01-06T01:33:09.147Z,4.13
2023-01-06T01:35:36.857Z,4.38
2023-01-06T01:38:04.665Z,4.45
2023-01-06T01:40:32.497Z,4.15
2023-01-06T01:43:00.363Z,5.00
2023-01-06T01:45:30.657Z,4.45
2023-01-06T01:48:03.522Z,3.72
2023-01-06T01:50:36.898Z,4.60
2023-01-06T01:53:10.004Z,4.85
2023-01-06T01:55:39.060Z,4.57
2023-01-06T01:58:10.827Z,4.40
2023-01-06T02:00:42.145Z,4.18
2023-01-06T02:03:12.190Z,4.25
2023-01-06T02:05:43.741Z,3.88
2023-01-06T02:08:21.733Z,3.33
2023-01-06T02:10:49.938Z,4.13
2023-01-06T02:13:17.756Z,4.13
2023-01-06T02:15:47.057Z,3.47
2023-01-06T02:18:35.526Z,3.40
2023-01-06T02:21:30.277Z,2.53
2023-01-06T02:24:19.150Z,2.90
2023-01-06T02:27:13.695Z,2.83
2023-01-06T02:30:35.425Z,2.55
2023-01-06T02:33:17.087Z,2.20
2023-01-06T02:36:02.019Z,2.17
2023-01-06T02:38:41.885Z,2.33
2023-01-06T02:41:30.208Z,1.90
2023-01-06T02:44:04.368Z,2.00
2023-01-06T02:47:10.693Z,1.80
2023-01-06T02:49:46.766Z,1.90
2023-01-06T02:52:23.310Z,2.00
2023-01-06T02:54:56.273Z,1.70
2023-01-06T02:57:33.435Z,1.80
2023-01-06T03:00:11.426Z,1.90
2023-01-06T03:02:41.713Z,1.90
2023-01-06T03:05:15.174Z,1.80
2023-01-06T03:07:45.806Z,1.75
2023-01-06T03:10:17.266Z,1.80
2023-01-06T03:12:52.776Z,1.92
2023-01-06T03:15:22.011Z,1.80
2023-01-06T03:17:50.289Z,1.40
2023-01-06T03:20:20.438Z,1.58
2023-01-06T03:22:49.014Z,1.67
2023-01-06T03:25:17.046Z,1.30
2023-01-06T03:27:45.596Z,1.40
2023-01-06T03:30:14.297Z,3.10
2023-01-06T03:32:54.228Z,1.38
2023-01-06T03:35:49.162Z,1.17
2023-01-06T03:38:28.319Z,1.30
2023-01-06T03:41:03.030Z,1.60
2023-01-06T03:43:39.294Z,1.42
2023-01-06T03:46:21.018Z,1.00
2023-01-06T03:48:57.815Z,1.00
2023-01-06T03:51:45.946Z,1.00
2023-01-06T03:54:27.455Z,1.20
2023-01-06T03:57:08.250Z,1.10
2023-01-06T03:59:42.218Z,1.30
2023-01-06T04:02:10.967Z,1.20
2023-01-06T04:04:38.908Z,0.90
2023-01-06T04:07:08.377Z,1.40
2023-01-06T04:09:40.121Z,1.20
2023-01-06T04:12:28.741Z,1.60
2023-01-06T04:14:56.505Z,1.55
2023-01-06T04:17:24.368Z,1.10
2023-01-06T04:19:52.503Z,1.05
2023-01-06T04:22:22.389Z,0.90
2023-01-06T04:24:50.128Z,0.80
2023-01-06T04:27:18.293Z,1.20
2023-01-06T04:29:47.346Z,1.20
2023-01-06T04:32:15.190Z,1.85
2023-01-06T04:34:43.305Z,1.50
2023-01-06T04:37:12.593Z,1.00
2023-01-06T04:39:41.684Z,1.00
2023-01-06T04:42:09.447Z,1.00
2023-01-06T04:44:37.247Z,1.70
2023-01-06T04:47:05.365Z,1.20
2023-01-06T04:49:33.048Z,1.00
2023-01-06T04:52:00.849Z,0.88
2023-01-06T04:54:28.824Z,0.80
2023-01-06T04:56:57.920Z,1.00
2023-01-06T04:59:25.631Z,0.90
2023-01-06T05:01:53.431Z,1.00
2023-01-06T05:04:21.569Z,1.10
2023-01-06T05:06:49.282Z,1.00
2023-01-06T05:09:17.052Z,1.00
2023-01-06T05:11:45.569Z,0.80
2023-01-06T05:14:14.751Z,0.98
2023-01-06T05:16:42.761Z,1.20
2023-01-06T05:19:11.026Z,1.58
2023-01-06T05:21:38.753Z,1.02
2023-01-06T05:24:06.932Z,1.20
2023-01-06T05:26:34.617Z,1.10
2023-01-06T05:29:02.415Z,1.20
2023-01-06T05:31:31.516Z,1.13
2023-01-06T05:33:59.677Z,1.00
2023-01-06T05:36:27.409Z,1.42
2023-01-06T05:38:55.937Z,1.13
2023-01-06T05:41:23.610Z,1.20
2023-01-06T05:43:51.334Z,1.20
2023-01-06T05:46:19.099Z,1.10
2023-01-06T05:48:48.194Z,1.60
2023-01-06T05:51:16.727Z,1.10
2023-01-06T05:53:46.105Z,1.40
2023-01-06T05:56:15.973Z,0.90
2023-01-06T05:58:46.134Z,1.10
2023-01-06T06:01:17.932Z,1.20
2023-01-06T06:03:46.095Z,1.63
2023-01-06T06:06:15.706Z,3.40
2023-01-06T06:08:43.420Z,0.90
2023-01-06T06:11:13.271Z,0.95
2023-01-06T06:13:46.697Z,1.10
2023-01-06T06:16:16.293Z,1.00
2023-01-06T06:18:44.130Z,0.90
2023-01-06T06:21:13.297Z,1.15
2023-01-06T06:23:43.005Z,0.85
2023-01-06T06:26:12.254Z,0.77
2023-01-06T06:28:41.050Z,0.95
2023-01-06T06:31:11.030Z,0.90
2023-01-06T06:33:39.134Z,0.93
2023-01-06T06:36:11.599Z,0.60
2023-01-06T06:38:39.801Z,0.73
2023-01-06T06:41:08.884Z,0.95
2023-01-06T06:43:36.717Z,0.85
2023-01-06T06:46:04.721Z,0.80
2023-01-06T06:48:32.855Z,0.70
2023-01-06T06:51:02.730Z,0.80
2023-01-06T06:53:32.141Z,0.93
2023-01-06T06:56:00.299Z,0.90
2023-01-06T06:58:29.459Z,0.90
2023-01-06T07:00:57.260Z,0.80
2023-01-06T07:03:25.355Z,0.70
2023-01-06T07:05:53.855Z,1.10
2023-01-06T07:08:21.627Z,1.60
2023-01-06T07:10:49.613Z,1.23
2023-01-06T07:13:17.325Z,1.05
2023-01-06T07:15:46.451Z,1.00
2023-01-06T07:18:14.299Z,0.85
2023-01-06T07:20:42.020Z,1.10
2023-01-06T07:23:10.008Z,1.15
2023-01-06T07:25:37.699Z,0.88
2023-01-06T07:28:07.064Z,0.70
2023-01-06T07:30:35.442Z,0.98
2023-01-06T07:33:05.540Z,0.90
2023-01-06T07:35:33.277Z,0.90
2023-01-06T07:38:05.459Z,1.05
2023-01-06T07:40:33.403Z,1.00
2023-01-06T07:43:05.375Z,0.80
2023-01-06T07:45:34.092Z,0.90
2023-01-06T07:48:02.080Z,0.70
2023-01-06T07:50:31.681Z,0.80
2023-01-06T07:53:00.489Z,0.60
2023-01-06T07:55:28.861Z,0.77
2023-01-06T07:57:56.650Z,0.80
2023-01-06T08:00:24.401Z,0.60
2023-01-06T08:02:52.267Z,0.80
2023-01-06T08:05:20.067Z,0.55
2023-01-06T08:07:49.134Z,0.73
2023-01-06T08:10:17.083Z,0.75
2023-01-06T08:12:44.938Z,0.55
2023-01-06T08:15:13.048Z,0.65
2023-01-06T08:17:40.767Z,0.75
2023-01-06T08:20:09.659Z,1.20
2023-01-06T08:22:37.460Z,0.75
2023-01-06T08:25:07.349Z,0.90
2023-01-06T08:27:35.019Z,0.90
2023-01-06T08:30:03.003Z,0.80
2023-01-06T08:32:30.775Z,0.50
2023-01-06T08:34:58.521Z,0.50
2023-01-06T08:37:26.228Z,1.10
2023-01-06T08:39:53.998Z,0.80
2023-01-06T08:42:23.124Z,0.70
2023-01-06T08:44:50.822Z,0.68
2023-01-06T08:47:18.570Z,0.75
2023-01-06T08:49:46.441Z,0.60
2023-01-06T08:52:14.167Z,0.80
2023-01-06T08:54:41.880Z,0.70
2023-01-06T08:57:09.614Z,0.70
2023-01-06T08:59:38.693Z,0.60
2023-01-06T09:02:06.592Z,0.70
2023-01-06T09:04:34.787Z,0.45
2023-01-06T09:07:02.599Z,0.60
2023-01-06T09:09:30.372Z,0.50
2023-01-06T09:11:58.173Z,0.63
2023-01-06T09:14:25.878Z,0.52
2023-01-06T09:16:55.474Z,0.40
2023-01-06T09:19:23.184Z,0.45
2023-01-06T09:21:50.882Z,0.60
2023-01-06T09:24:18.653Z,0.55
2023-01-06T09:26:46.388Z,0.40
2023-01-06T09:29:14.191Z,0.52
2023-01-06T09:31:42.056Z,0.60
2023-01-06T09:34:11.140Z,1.10
2023-01-06T09:36:38.831Z,0.68
2023-01-06T09:39:06.601Z,0.35
2023-01-06T09:42:06.995Z,0.70
2023-01-06T09:44:42.398Z,0.40
2023-01-06T09:47:13.949Z,0.57
2023-01-06T09:49:47.477Z,0.40
2023-01-06T09:52:20.074Z,1.10
2023-01-06T09:54:55.374Z,1.33
2023-01-06T09:57:29.963Z,0.50
2023-01-06T10:00:01.222Z,0.40
2023-01-06T10:02:34.213Z,0.50
2023-01-06T10:05:03.648Z,0.60
2023-01-06T10:07:41.536Z,0.38
2023-01-06T10:10:23.324Z,0.47
2023-01-06T10:13:01.647Z,0.30
2023-01-06T10:15:39.445Z,0.50
2023-01-06T10:18:27.125Z,0.32
2023-01-06T10:21:07.298Z,0.63
2023-01-06T10:23:57.811Z,0.30
2023-01-06T10:26:30.677Z,0.40
2023-01-06T10:29:02.723Z,0.25
2023-01-06T10:31:35.404Z,0.65
2023-01-06T10:34:04.123Z,0.20
2023-01-06T10:36:39.671Z,0.30
2023-01-06T10:41:46.367Z,0.40
2023-01-06T10:44:15.014Z,0.22
2023-01-06T10:46:45.197Z,0.40
2023-01-06T10:49:16.243Z,0.40
2023-01-06T10:51:51.453Z,0.25
2023-01-06T10:54:23.526Z,0.50
2023-01-06T10:56:56.628Z,0.40
2023-01-06T10:59:24.371Z,0.40
2023-01-06T11:01:54.737Z,0.35
2023-01-06T11:04:22.682Z,0.40
2023-01-06T11:06:55.190Z,0.30
2023-01-06T11:09:27.066Z,0.20
2023-01-06T11:11:56.924Z,0.30
2023-01-06T11:14:29.735Z,0.30
2023-01-06T11:16:59.530Z,0.20
2023-01-06T11:19:35.834Z,0.40
2023-01-06T11:22:05.211Z,0.10
2023-01-06T11:24:33.329Z,0.40
2023-01-06T11:27:03.113Z,0.22
2023-01-06T11:29:33.718Z,0.30
2023-01-06T11:32:06.190Z,0.40
2023-01-06T11:34:34.723Z,0.20
2023-01-06T11:37:02.539Z,0.50
2023-01-06T11:39:34.593Z,0.47
2023-01-06T11:42:11.969Z,1.20
2023-01-06T11:44:41.372Z,0.40
2023-01-06T11:47:14.925Z,0.30
2023-01-06T11:49:47.479Z,0.22
2023-01-06T11:52:23.183Z,0.30
2023-01-06T11:55:01.935Z,0.40
2023-01-06T11:57:45.555Z,0.50
2023-01-06T12:00:26.438Z,0.40
2023-01-06T12:03:04.836Z,0.40
2023-01-06T12:05:39.352Z,0.68
2023-01-06T12:08:15.933Z,0.40
2023-01-06T12:10:48.866Z,0.22
2023-01-06T12:13:16.799Z,0.22
2023-01-06T12:15:48.787Z,0.30
2023-01-06T12:18:22.885Z,0.40
2023-01-06T12:20:53.165Z,1.25
2023-01-06T12:23:24.814Z,0.35
2023-01-06T12:25:57.248Z,0.50
2023-01-06T12:28:29.048Z,0.50
2023-01-06T12:31:03.631Z,0.50
2023-01-06T12:33:36.271Z,0.47
2023-01-06T12:36:09.002Z,0.30
2023-01-06T12:38:47.415Z,0.50
2023-01-06T12:41:27.279Z,0.50
2023-01-06T12:44:01.369Z,0.50
2023-01-06T12:46:33.549Z,0.57
2023-01-06T12:49:07.380Z,0.40
2023-01-06T12:51:40.154Z,0.60
2023-01-06T12:54:15.777Z,0.30
2023-01-06T12:57:05.759Z,0.28
2023-01-06T12:59:46.543Z,0.30
2023-01-06T13:02:27.539Z,0.30
2023-01-06T13:05:17.287Z,0.50
2023-01-06T13:07:54.165Z,1.23
2023-01-06T13:10:31.408Z,0.50
2023-01-06T13:13:28.132Z,0.70
2023-01-06T13:16:01.006Z,0.40
2023-01-06T13:18:35.408Z,0.43
2023-01-06T13:21:06.665Z,0.22
2023-01-06T13:23:55.717Z,0.32
2023-01-06T13:27:01.987Z,0.30
2023-01-06T13:29:43.537Z,0.22
2023-01-06T13:32:32.773Z,0.28
2023-01-06T13:35:36.785Z,0.50
2023-01-06T13:38:19.052Z,0.50
2023-01-06T13:40:50.072Z,0.50
2023-01-06T13:43:23.815Z,0.47
2023-01-06T13:45:58.644Z,0.50
2023-01-06T13:48:30.954Z,0.47
2023-01-06T13:50:59.842Z,0.60
2023-01-06T13:53:28.047Z,0.40
2023-01-06T13:56:29.784Z,0.50
2023-01-06T13:59:20.836Z,0.50
2023-01-06T14:01:50.592Z,0.47
2023-01-06T14:04:47.918Z,0.40
2023-01-06T14:07:16.421Z,0.60
2023-01-06T14:09:50.258Z,0.60
2023-01-06T14:12:22.249Z,0.40
2023-01-06T14:15:02.502Z,0.82
2023-01-06T14:17:40.241Z,1.00
2023-01-06T14:20:23.593Z,0.98
2023-01-06T14:23:00.972Z,0.95
2023-01-06T14:25:29.796Z,0.70
2023-01-06T14:28:09.353Z,0.52
2023-01-06T14:30:37.986Z,1.10
2023-01-06T14:33:33.820Z,0.90
2023-01-06T14:36:06.355Z,4.57
2023-01-06T14:38:42.162Z,1.30
2023-01-06T14:41:20.051Z,0.75
2023-01-06T14:43:54.414Z,1.13
2023-01-06T14:46:25.171Z,0.80
2023-01-06T14:49:00.980Z,0.90
2023-01-06T14:51:31.617Z,0.88
2023-01-06T14:54:06.190Z,1.00
2023-01-06T14:56:35.290Z,0.70
2023-01-06T14:59:05.750Z,0.70
2023-01-06T15:01:36.711Z,0.60
2023-01-06T15:04:20.264Z,0.50
2023-01-06T15:06:58.452Z,0.63
2023-01-06T15:09:27.095Z,1.38
2023-01-06T15:11:55.483Z,0.57
2023-01-06T15:14:33.004Z,0.50
2023-01-06T15:17:07.460Z,0.40
2023-01-06T15:19:37.653Z,0.50
2023-01-06T15:22:09.409Z,0.68
2023-01-06T15:24:43.104Z,0.50
2023-01-06T15:27:16.081Z,0.70
2023-01-06T15:29:50.677Z,0.30
2023-01-06T15:32:19.971Z,0.40
2023-01-06T15:34:51.002Z,0.57
2023-01-06T15:37:21.341Z,0.50
2023-01-06T15:39:50.170Z,0.65
2023-01-06T15:42:22.203Z,0.70
2023-01-06T15:44:57.883Z,0.85
2023-01-06T15:47:31.872Z,0.70
2023-01-06T15:50:03.222Z,0.80
2023-01-06T15:52:33.746Z,0.50
2023-01-06T15:55:04.142Z,0.70
2023-01-06T15:57:35.566Z,0.70
2023-01-06T16:00:08.402Z,0.55
2023-01-06T16:02:36.467Z,0.80
2023-01-06T16:05:06.507Z,0.93
2023-01-06T16:07:39.176Z,0.90
2023-01-06T16:10:35.965Z,0.80
2023-01-06T16:13:28.565Z,0.55
2023-01-06T16:16:05.999Z,0.60
2023-01-06T16:18:35.598Z,0.95
2023-01-06T16:21:17.049Z,0.93
2023-01-06T16:23:49.727Z,0.93
2023-01-06T16:26:19.879Z,0.90
2023-01-06T16:28:50.466Z,1.10
2023-01-06T16:31:31.225Z,1.13
2023-01-06T16:34:18.292Z,1.02
2023-01-06T16:36:48.539Z,1.02
2023-01-06T16:39:16.687Z,0.90
2023-01-06T16:42:42.820Z,1.10
2023-01-06T16:45:27.286Z,0.57
2023-01-06T16:47:55.661Z,0.80
2023-01-06T16:50:26.638Z,0.70
2023-01-06T16:53:14.813Z,0.70
2023-01-06T16:55:43.565Z,0.80
2023-01-06T16:58:18.022Z,0.80
2023-01-06T17:00:51.358Z,1.10
2023-01-06T17:03:20.762Z,1.00
2023-01-06T17:05:48.618Z,1.20
2023-01-06T17:08:22.574Z,1.17
2023-01-06T17:10:50.362Z,0.90
2023-01-06T17:13:36.671Z,0.80
2023-01-06T17:16:14.605Z,0.90
2023-01-06T17:18:59.341Z,1.00
2023-01-06T17:21:30.230Z,0.88
2023-01-06T17:24:06.374Z,2.55
2023-01-06T17:26:34.075Z,1.25
2023-01-06T17:29:03.121Z,1.25
2023-01-06T17:31:33.785Z,1.02
2023-01-06T17:34:11.039Z,0.98
2023-01-06T17:36:40.998Z,1.10
2023-01-06T17:39:18.153Z,1.40
2023-01-06T17:41:45.998Z,4.18
2023-01-06T17:44:16.585Z,1.33
2023-01-06T17:46:45.231Z,1.23
2023-01-06T17:49:36.933Z,1.30
2023-01-06T17:52:18.111Z,1.42
2023-01-06T17:55:12.181Z,1.30
2023-01-06T17:57:42.446Z,1.47
2023-01-06T18:00:19.504Z,1.05
2023-01-06T18:02:49.859Z,1.05
2023-01-06T18:05:57.557Z,1.13
2023-01-06T18:08:27.209Z,1.30
2023-01-06T18:11:02.130Z,0.90
2023-01-06T18:13:35.462Z,1.02
2023-01-06T18:16:09.565Z,0.95
2023-01-06T18:18:39.297Z,1.05
2023-01-06T18:21:24.944Z,1.20
2023-01-06T18:23:53.301Z,1.00
2023-01-06T18:26:40.714Z,1.40
2023-01-06T18:29:14.765Z,1.40
2023-01-06T18:31:44.112Z,1.67
2023-01-06T18:34:36.036Z,1.80
2023-01-06T18:37:04.550Z,1.67
2023-01-06T18:39:39.458Z,1.70
2023-01-06T18:42:24.739Z,1.63
2023-01-06T18:47:23.814Z,2.15
2023-01-06T18:49:56.849Z,1.95
2023-01-06T18:52:46.241Z,1.30
2023-01-06T18:55:20.180Z,1.77
2023-01-06T18:58:00.315Z,1.40
2023-01-06T19:00:41.534Z,1.65
2023-01-06T19:03:33.671Z,1.63
2023-01-06T19:06:32.389Z,1.65
2023-01-06T19:09:02.186Z,1.90
2023-01-06T19:11:32.873Z,1.50
2023-01-06T19:14:07.113Z,1.35
2023-01-06T19:16:37.950Z,1.60
2023-01-06T19:19:29.391Z,1.67
2023-01-06T19:22:17.625Z,1.77
2023-01-06T19:24:49.542Z,1.35
2023-01-06T19:27:42.240Z,1.90
2023-01-06T19:30:35.675Z,2.10
2023-01-06T19:33:25.732Z,2.00
2023-01-06T19:35:59.891Z,1.80
2023-01-06T19:38:29.843Z,1.70
2023-01-06T19:41:00.622Z,1.85
2023-01-06T19:43:30.221Z,1.60
2023-01-06T19:46:02.980Z,1.50
2023-01-06T19:48:38.251Z,1.70
2023-01-06T19:51:23.269Z,1.70
2023-01-06T19:53:52.350Z,2.53
2023-01-06T19:56:23.261Z,2.90
2023-01-06T19:58:54.185Z,4.07
2023-01-06T20:01:24.757Z,3.90
2023-01-06T20:03:54.774Z,2.00
2023-01-06T20:06:23.498Z,2.50
2023-01-06T20:08:53.258Z,2.22
2023-01-06T20:11:22.371Z,1.70
2023-01-06T20:13:50.448Z,1.65
2023-01-06T20:16:18.234Z,1.50
2023-01-06T20:18:47.432Z,2.03
2023-01-06T20:21:15.149Z,2.20
2023-01-06T20:23:42.867Z,1.63
2023-01-06T20:26:10.575Z,1.60
2023-01-06T20:28:38.362Z,1.55
2023-01-06T20:31:06.477Z,1.70
2023-01-06T20:33:34.252Z,1.50
2023-01-06T20:36:03.417Z,1.70
2023-01-06T20:38:31.149Z,1.50
2023-01-06T20:40:59.244Z,1.20
2023-01-06T20:43:27.016Z,1.27
2023-01-06T20:45:54.909Z,1.58
2023-01-06T20:48:22.711Z,1.83
2023-01-06T20:50:50.750Z,3.08
2023-01-06T20:53:21.345Z,2.35
2023-01-06T20:55:49.263Z,1.88
2023-01-06T20:58:17.069Z,1.70
2023-01-06T21:00:44.847Z,1.60
2023-01-06T21:03:12.915Z,1.40
2023-01-06T21:05:40.620Z,1.38
2023-01-06T21:08:08.771Z,1.70
2023-01-06T21:10:38.679Z,1.50
2023-01-06T21:13:07.085Z,1.70
2023-01-06T21:15:34.883Z,1.15
2023-01-06T21:18:02.775Z,3.03
2023-01-06T21:20:31.016Z,1.00
2023-01-06T21:22:58.926Z,0.80
2023-01-06T21:25:26.865Z,1.08
2023-01-06T21:27:55.954Z,1.30
2023-01-06T21:30:24.448Z,1.42
2023-01-06T21:32:52.229Z,1.10
2023-01-06T21:35:20.084Z,1.20
2023-01-06T21:37:47.851Z,0.90
2023-01-06T21:40:15.778Z,3.47
2023-01-06T21:43:00.853Z,2.83
2023-01-06T21:45:30.173Z,2.20
2023-01-06T21:47:58.095Z,2.05
2023-01-06T21:50:26.978Z,1.90
2023-01-06T21:52:55.888Z,2.40
2023-01-06T21:55:24.432Z,2.75
2023-01-06T21:57:52.182Z,2.00
2023-01-06T22:00:20.372Z,1.70
2023-01-06T22:02:49.646Z,1.50
2023-01-06T22:05:17.701Z,1.00
2023-01-06T22:07:49.373Z,1.23
2023-01-06T22:10:19.514Z,1.40
2023-01-06T22:12:50.328Z,1.90
2023-01-06T22:15:18.620Z,1.70
2023-01-06T22:17:46.388Z,1.60
2023-01-06T22:20:17.492Z,2.10
2023-01-06T22:22:45.772Z,1.13
2023-01-06T22:25:13.626Z,1.13
2023-01-06T22:27:41.405Z,1.10
2023-01-06T22:30:10.575Z,1.00
2023-01-06T22:32:43.733Z,1.27
2023-01-06T22:35:12.326Z,1.00
2023-01-06T22:37:42.217Z,0.90
2023-01-06T22:40:11.434Z,1.00
2023-01-06T22:42:39.313Z,1.15
2023-01-06T22:45:08.731Z,1.08
2023-01-06T22:47:36.705Z,1.15
2023-01-06T22:50:06.117Z,1.20
2023-01-06T22:52:34.685Z,1.20
2023-01-06T22:55:03.954Z,1.10
2023-01-06T22:57:31.881Z,0.95
2023-01-06T23:00:00.110Z,1.00
2023-01-06T23:02:28.499Z,1.02
2023-01-06T23:04:56.331Z,1.10
2023-01-06T23:07:24.118Z,0.90
2023-01-06T23:09:51.851Z,1.05
2023-01-06T23:12:20.987Z,1.00
2023-01-06T23:14:48.819Z,0.73
2023-01-06T23:17:16.605Z,0.90
2023-01-06T23:19:44.374Z,0.90
2023-01-06T23:22:12.058Z,0.70
2023-01-06T23:24:40.182Z,1.00
2023-01-06T23:27:08.138Z,1.10
2023-01-06T23:29:37.275Z,1.10
2023-01-06T23:32:06.085Z,1.00
2023-01-06T23:34:34.250Z,0.98
2023-01-06T23:37:02.208Z,1.00
2023-01-06T23:39:29.926Z,1.30
2023-01-06T23:41:57.674Z,1.10
2023-01-06T23:44:25.353Z,1.08
2023-01-06T23:46:54.441Z,0.90
2023-01-06T23:49:22.172Z,1.05
2023-01-06T23:51:49.928Z,0.88
2023-01-06T23:54:17.792Z,1.02
2023-01-06T23:56:45.534Z,0.95
2023-01-06T23:59:14.104Z,0.90
